Time;durP1;ratioP1;P1;durP2;ratioP2;P2;SDS_P1;SDS_P2;PMS_P1;PMS_P2;Temp;Humidity;BMP_temperature;BMP_pressure;BME280_temperature;BME280_humidity;BME280_pressure;Samples;Min_cycle;Max_cycle;Signal;HPM_P1;HPM_P2
2023/05/17 00:00:34;;;;;;;3.33;2.50;;;;;;;12.03;52.51;99141.69;6979012;28;20316;-86
2023/05/17 00:03:55;;;;;;;5.30;2.60;;;;;;;11.22;54.35;99151.81;6978660;28;20241;-87
2023/05/17 00:07:17;;;;;;;3.63;2.70;;;;;;;10.58;56.31;99061.44;6978929;28;20328;-87
2023/05/17 00:10:38;;;;;;;3.17;2.63;;;;;;;11.41;54.99;99157.31;6978994;28;20268;-87
2023/05/17 00:14:01;;;;;;;5.83;2.60;;;;;;;11.52;53.79;99154.00;6978691;28;20268;-87
2023/05/17 00:17:23;;;;;;;4.43;3.20;;;;;;;11.83;53.13;99150.81;6979197;28;20289;-88
2023/05/17 00:20:44;;;;;;;4.40;2.50;;;;;;;11.54;52.38;99084.44;6978329;28;20269;-86
2023/05/17 00:24:08;;;;;;;3.97;2.43;;;;;;;11.58;52.61;99155.09;6978809;28;20198;-86
2023/05/17 00:27:29;;;;;;;5.07;2.70;;;;;;;11.50;53.42;99157.94;6978153;28;20226;-86
2023/05/17 00:30:52;;;;;;;5.83;2.93;;;;;;;11.34;53.75;99161.00;6977577;28;20424;-88
2023/05/17 00:34:13;;;;;;;2.73;2.33;;;;;;;11.66;53.07;99153.06;6967805;28;20210;-86
2023/05/17 00:37:35;;;;;;;4.10;2.40;;;;;;;11.51;53.42;99160.44;6949731;28;20261;-88
2023/05/17 00:40:56;;;;;;;5.33;2.70;;;;;;;11.44;53.82;99167.69;6949492;28;20242;-89
2023/05/17 00:44:18;;;;;;;5.93;2.57;;;;;;;11.79;52.77;99163.06;6949677;28;20290;-88
2023/05/17 00:47:42;;;;;;;5.10;2.93;;;;;;;11.60;52.94;99170.06;6951210;28;20227;-88
2023/05/17 00:51:04;;;;;;;5.20;2.60;;;;;;;11.48;53.48;99162.72;6949676;28;20213;-89
2023/05/17 00:54:25;;;;;;;2.63;2.30;;;;;;;11.38;53.41;99151.47;6950000;28;20286;-88
2023/05/17 00:57:47;;;;;;;2.77;2.47;;;;;;;11.04;53.98;99162.31;6952095;28;20721;-87
2023/05/17 01:01:09;;;;;;;4.67;3.00;;;;;;;11.15;54.21;99161.75;6952342;28;20703;-88
2023/05/17 01:04:32;;;;;;;4.10;2.50;;;;;;;11.00;54.02;99169.13;6951555;28;20349;-88
2023/05/17 01:07:53;;;;;;;6.70;2.50;;;;;;;11.10;54.60;99183.94;6951716;28;20314;-89
2023/05/17 01:11:23;;;;;;;3.67;2.67;;;;;;;10.78;55.00;99179.19;6951066;28;20684;-88
2023/05/17 01:14:53;;;;;;;4.77;2.70;;;;;;;10.12;55.71;99116.88;6951605;28;20701;-88
2023/05/17 01:18:20;;;;;;;3.10;2.70;;;;;;;10.62;56.62;99192.94;6952539;28;20373;-88
2023/05/17 01:21:53;;;;;;;3.60;2.80;;;;;;;10.69;55.32;99174.13;6951876;28;20305;-88
2023/05/17 01:25:29;;;;;;;4.47;2.67;;;;;;;10.10;56.99;99145.88;6951697;28;20271;-89
2023/05/17 01:28:53;;;;;;;3.83;2.70;;;;;;;10.70;55.78;99206.28;6954051;28;20194;-89
2023/05/17 01:32:15;;;;;;;3.80;2.60;;;;;;;10.65;54.71;99205.22;6954752;28;20320;-88
2023/05/17 01:35:37;;;;;;;6.57;2.93;;;;;;;10.79;55.15;99199.72;6957919;28;20210;-89
2023/05/17 01:38:59;;;;;;;3.07;2.87;;;;;;;10.61;55.18;99169.72;6958002;28;20277;-88
2023/05/17 01:42:23;;;;;;;5.20;2.67;;;;;;;10.80;55.32;99201.38;6956874;28;20227;-88
2023/05/17 01:45:56;;;;;;;3.33;2.60;;;;;;;10.72;55.34;99203.38;6957810;28;20632;-88
2023/05/17 01:49:21;;;;;;;4.27;2.60;;;;;;;10.60;55.49;99208.50;6958707;28;20304;-89
2023/05/17 01:52:48;;;;;;;4.20;2.53;;;;;;;10.52;55.10;99214.00;6956868;28;20309;-88
2023/05/17 01:56:15;;;;;;;3.97;2.70;;;;;;;10.21;55.38;99158.81;6957996;28;20225;-88
2023/05/17 01:59:38;;;;;;;5.03;2.90;;;;;;;10.69;55.39;99199.22;6959388;28;20179;-88
2023/05/17 02:03:01;;;;;;;4.13;2.77;;;;;;;10.73;55.13;99222.06;6957563;28;20230;-89
2023/05/17 02:06:23;;;;;;;4.87;2.67;;;;;;;9.68;55.20;99089.31;6958966;28;20318;-89
2023/05/17 02:09:44;;;;;;;3.83;2.77;;;;;;;9.70;56.09;99133.81;6959453;28;20313;-89
2023/05/17 02:13:06;;;;;;;5.63;2.83;;;;;;;10.44;55.46;99218.72;6958185;28;20267;-89
2023/05/17 02:16:27;;;;;;;5.73;2.70;;;;;;;9.97;55.42;99153.78;6958950;28;20233;-89
2023/05/17 02:19:50;;;;;;;7.17;3.00;;;;;;;10.13;55.77;99216.38;6960263;28;20261;-89
2023/05/17 02:23:12;;;;;;;4.53;2.90;;;;;;;10.28;55.60;99197.44;6959666;28;20295;-89
2023/05/17 02:26:33;;;;;;;4.17;3.00;;;;;;;10.69;55.29;99228.06;6967416;28;20251;-90
2023/05/17 02:29:55;;;;;;;10.40;2.90;;;;;;;9.38;56.22;99158.53;6980899;28;20221;-90
2023/05/17 02:33:17;;;;;;;3.80;3.00;;;;;;;9.40;58.30;99233.72;6990432;28;20206;-90
2023/05/17 02:36:40;;;;;;;3.90;2.90;;;;;;;9.95;58.05;99233.94;6987423;28;20222;-88
2023/05/17 02:40:03;;;;;;;4.50;2.80;;;;;;;10.12;56.52;99240.81;6988687;28;20265;-88
2023/05/17 02:43:24;;;;;;;3.67;2.97;;;;;;;9.97;55.73;99186.94;6988286;28;20225;-89
2023/05/17 02:46:46;;;;;;;5.43;2.93;;;;;;;9.66;56.25;99143.34;6987885;28;20222;-89
2023/05/17 02:50:08;;;;;;;3.23;2.40;;;;;;;10.36;55.40;99237.72;6988443;28;20225;-88
2023/05/17 02:53:31;;;;;;;3.90;2.77;;;;;;;10.38;55.88;99239.19;6988489;28;20202;-89
2023/05/17 02:56:53;;;;;;;4.90;3.47;;;;;;;10.34;54.73;99246.00;6987087;28;20276;-90
2023/05/17 03:00:16;;;;;;;3.53;2.83;;;;;;;9.94;55.25;99175.72;6980357;28;20219;-91
2023/05/17 03:03:37;;;;;;;3.27;2.90;;;;;;;9.89;55.91;99203.25;6977283;28;20226;-92
2023/05/17 03:06:58;;;;;;;4.13;2.73;;;;;;;10.45;54.96;99241.97;6977228;28;20308;-92
2023/05/17 03:10:21;;;;;;;4.07;3.20;;;;;;;9.91;55.55;99259.59;6976570;28;20289;-91
2023/05/17 03:13:45;;;;;;;7.23;3.33;;;;;;;9.94;55.12;99200.81;6975003;28;20347;-90
2023/05/17 03:17:06;;;;;;;4.23;3.00;;;;;;;10.21;54.98;99253.13;6982835;28;20222;-92
2023/05/17 03:20:28;;;;;;;8.37;2.80;;;;;;;9.77;55.82;99255.06;6984584;28;20218;-91
2023/05/17 03:23:49;;;;;;;5.00;2.80;;;;;;;9.60;56.08;99224.00;6988333;28;20740;-90
2023/05/17 03:27:12;;;;;;;4.67;2.80;;;;;;;9.02;55.48;99154.97;6993911;28;20226;-89
2023/05/17 03:30:34;;;;;;;3.93;2.80;;;;;;;9.48;55.80;99186.00;6993475;28;20217;-89
2023/05/17 03:33:56;;;;;;;5.10;3.70;;;;;;;10.05;54.97;99264.16;6992289;28;20222;-88
2023/05/17 03:37:17;;;;;;;2.80;2.60;;;;;;;9.48;55.98;99218.28;6992063;28;20233;-89
2023/05/17 03:40:40;;;;;;;7.03;2.57;;;;;;;9.23;55.53;99151.53;6990748;28;20270;-90
2023/05/17 03:44:03;;;;;;;3.00;2.70;;;;;;;9.19;54.68;99142.16;6989719;28;20225;-88
2023/05/17 03:47:25;;;;;;;2.90;2.70;;;;;;;9.53;55.31;99212.34;6988444;28;20253;-89
2023/05/17 03:50:47;;;;;;;3.53;2.93;;;;;;;9.26;55.99;99243.44;6991851;28;20205;-88
2023/05/17 03:54:08;;;;;;;2.97;2.67;;;;;;;9.86;55.59;99275.50;6992059;28;20206;-89
2023/05/17 03:57:30;;;;;;;3.20;2.70;;;;;;;9.79;56.26;99288.03;6991700;28;20265;-88
2023/05/17 04:00:53;;;;;;;4.60;3.10;;;;;;;9.21;55.70;99212.75;6992502;28;20210;-88
2023/05/17 04:04:15;;;;;;;6.87;2.90;;;;;;;9.89;55.95;99285.88;6971194;28;20207;-88
2023/05/17 04:07:36;;;;;;;4.40;2.97;;;;;;;9.92;55.47;99266.66;6986014;28;20243;-89
2023/05/17 04:10:58;;;;;;;2.87;2.67;;;;;;;9.95;55.21;99277.03;6991182;28;20248;-88
2023/05/17 04:14:21;;;;;;;3.03;2.70;;;;;;;9.27;54.43;99168.97;6974644;28;20261;-87
2023/05/17 04:17:44;;;;;;;3.20;2.87;;;;;;;8.96;54.88;99192.53;6953500;28;20226;-87
2023/05/17 04:21:06;;;;;;;4.50;2.97;;;;;;;8.76;58.24;99282.81;6952987;28;20211;-90
2023/05/17 04:24:27;;;;;;;2.97;2.67;;;;;;;9.18;57.86;99248.94;6953009;28;20206;-87
2023/05/17 04:27:49;;;;;;;4.87;3.00;;;;;;;9.47;57.21;99248.06;6952123;28;20758;-87
2023/05/17 04:31:13;;;;;;;3.30;3.00;;;;;;;9.04;57.36;99257.81;6953206;28;20214;-87
2023/05/17 04:34:36;;;;;;;5.07;3.20;;;;;;;9.04;57.76;99236.31;6956817;28;20209;-87
2023/05/17 04:37:57;;;;;;;2.93;2.73;;;;;;;8.85;57.42;99195.66;6961149;28;20222;-89
2023/05/17 04:41:19;;;;;;;3.43;2.77;;;;;;;9.79;56.48;99301.50;6956728;28;20203;-87
2023/05/17 04:44:41;;;;;;;17.37;9.90;;;;;;;10.18;55.11;99285.84;6957648;28;20210;-87
2023/05/17 04:48:04;;;;;;;3.80;3.10;;;;;;;10.73;54.25;99310.22;6969626;28;20222;-87
2023/05/17 04:51:27;;;;;;;16.90;5.33;;;;;;;11.05;53.05;99332.09;6979999;28;20198;-88
2023/05/17 04:54:50;;;;;;;3.00;2.70;;;;;;;10.80;52.52;99289.56;6957679;28;20211;-87
2023/05/17 04:58:12;;;;;;;3.63;2.93;;;;;;;11.22;52.71;99340.75;6981231;28;20697;-88
2023/05/17 05:01:34;;;;;;;3.47;2.60;;;;;;;10.00;53.84;99218.91;6959438;28;20218;-87
2023/05/17 05:04:55;;;;;;;4.87;2.80;;;;;;;10.86;53.03;99321.97;6955296;28;20221;-88
2023/05/17 05:08:18;;;;;;;4.97;2.83;;;;;;;10.93;54.46;99322.03;6957970;28;20223;-88
2023/05/17 05:11:40;;;;;;;4.70;2.67;;;;;;;11.68;53.46;99348.16;6957738;28;20207;-88
2023/05/17 05:15:17;;;;;;;5.70;3.20;;;;;;;11.60;53.10;99347.47;6957445;28;20199;-88
2023/05/17 05:18:51;;;;;;;5.97;2.97;;;;;;;12.34;52.24;99308.75;6958065;28;20309;-88
2023/05/17 05:22:13;;;;;;;4.83;2.80;;;;;;;12.46;50.35;99228.69;6960807;28;20284;-89
2023/05/17 05:25:38;;;;;;;4.63;2.80;;;;;;;12.54;51.08;99296.09;6960751;28;20207;-87
2023/05/17 05:28:59;;;;;;;6.50;3.53;;;;;;;12.70;51.84;99311.94;6957218;28;20227;-87
2023/05/17 05:32:21;;;;;;;6.10;3.10;;;;;;;12.87;50.22;99367.34;6966304;28;20210;-82
2023/05/17 05:35:42;;;;;;;2.87;2.67;;;;;;;13.19;50.50;99355.72;6963056;28;20313;-81
2023/05/17 05:39:04;;;;;;;4.90;3.30;;;;;;;13.34;50.34;99361.78;6959278;28;20206;-81
2023/05/17 05:42:28;;;;;;;4.10;3.20;;;;;;;12.97;50.66;99367.78;6960470;28;20305;-82
2023/05/17 05:45:49;;;;;;;3.10;2.80;;;;;;;13.95;48.46;99355.81;6952036;28;20234;-82
2023/05/17 05:49:11;;;;;;;5.63;2.97;;;;;;;14.14;48.70;99371.19;6951531;28;20293;-82
2023/05/17 05:52:32;;;;;;;10.40;3.30;;;;;;;14.43;47.89;99359.84;6951833;28;20291;-81
2023/05/17 05:55:54;;;;;;;6.17;3.00;;;;;;;13.64;48.98;99380.06;6975286;28;20302;-82
2023/05/17 05:59:17;;;;;;;6.83;3.03;;;;;;;14.12;49.13;99373.28;6977689;28;20207;-82
2023/05/17 06:02:38;;;;;;;8.80;3.07;;;;;;;15.40;45.83;99354.81;6976662;28;20724;-81
2023/05/17 06:06:00;;;;;;;6.77;2.97;;;;;;;15.45;45.55;99374.00;6970022;28;20216;-82
2023/05/17 06:09:21;;;;;;;4.77;2.97;;;;;;;16.37;43.56;99378.25;6953039;28;20294;-82
2023/05/17 06:12:43;;;;;;;4.33;2.50;;;;;;;16.46;41.81;99333.34;6956553;28;20199;-82
2023/05/17 06:16:06;;;;;;;6.80;2.90;;;;;;;16.18;43.18;99368.44;6949417;28;20296;-83
2023/05/17 06:19:28;;;;;;;9.00;2.80;;;;;;;16.16;43.46;99391.50;6949382;28;20681;-82
2023/05/17 06:22:49;;;;;;;10.93;2.93;;;;;;;16.59;43.33;99387.63;6948904;28;20281;-82
2023/05/17 06:26:11;;;;;;;7.53;3.00;;;;;;;16.24;42.80;99378.41;6949678;28;20229;-83
2023/05/17 06:29:33;;;;;;;7.83;3.20;;;;;;;16.41;42.80;99375.94;6950017;28;20672;-83
2023/05/17 06:32:55;;;;;;;4.57;2.70;;;;;;;16.98;41.10;99383.53;6949779;28;20193;-83
2023/05/17 06:36:17;;;;;;;5.40;3.03;;;;;;;16.98;41.38;99381.63;6960390;28;20276;-84
2023/05/17 06:39:39;;;;;;;8.30;2.63;;;;;;;16.85;42.19;99384.53;6978284;28;20572;-83
2023/05/17 06:43:01;;;;;;;6.53;2.73;;;;;;;17.00;41.27;99365.06;6960149;28;20273;-84
2023/05/17 06:46:22;;;;;;;5.97;2.83;;;;;;;16.97;41.59;99390.88;6971707;28;20224;-83
2023/05/17 06:49:45;;;;;;;4.27;2.73;;;;;;;17.19;41.35;99391.16;6970281;28;20250;-83
2023/05/17 06:53:06;;;;;;;4.17;3.17;;;;;;;17.34;41.91;99383.41;6982840;28;20293;-83
2023/05/17 06:56:28;;;;;;;3.93;2.50;;;;;;;17.57;41.00;99384.28;6977045;28;20751;-83
2023/05/17 06:59:51;;;;;;;4.17;3.30;;;;;;;17.04;41.67;99394.31;6983485;28;20247;-82
2023/05/17 07:03:12;;;;;;;4.83;2.60;;;;;;;16.53;42.04;99380.38;6982753;28;20705;-83
2023/05/17 07:06:35;;;;;;;7.00;2.93;;;;;;;16.78;42.52;99391.13;6977310;28;20250;-83
2023/05/17 07:09:56;;;;;;;7.90;3.33;;;;;;;17.32;41.16;99396.41;6955676;28;20413;-84
2023/05/17 07:13:18;;;;;;;5.97;3.03;;;;;;;16.99;41.82;99383.28;6954903;28;20298;-84
2023/05/17 07:16:40;;;;;;;4.70;3.07;;;;;;;17.19;41.87;99388.44;6956235;28;20317;-84
2023/05/17 07:20:01;;;;;;;6.83;3.00;;;;;;;16.70;43.54;99381.38;6956050;28;20295;-83
2023/05/17 07:23:24;;;;;;;4.03;3.03;;;;;;;16.93;43.45;99386.94;6982371;28;20244;-83
2023/05/17 07:26:46;;;;;;;6.63;3.20;;;;;;;16.82;42.62;99359.66;6983534;28;20311;-84
2023/05/17 07:30:08;;;;;;;7.93;3.07;;;;;;;16.54;43.63;99390.22;6983995;28;20216;-83
2023/05/17 07:33:30;;;;;;;3.53;3.03;;;;;;;16.68;43.02;99358.19;6984455;28;20683;-87
2023/05/17 07:36:51;;;;;;;6.73;3.50;;;;;;;16.44;43.37;99362.69;6984798;28;20229;-87
2023/05/17 07:40:15;;;;;;;8.50;3.40;;;;;;;16.55;43.41;99328.41;6980919;28;20217;-88
2023/05/17 07:44:00;;;;;;;6.43;3.20;;;;;;;15.45;45.81;99298.72;6963751;28;20225;-88
2023/05/17 07:47:22;;;;;;;4.70;3.37;;;;;;;15.76;45.08;99290.44;6939080;28;20248;-88
2023/05/17 07:50:47;;;;;;;7.40;3.80;;;;;;;16.28;43.57;99390.47;6983653;28;20221;-86
2023/05/17 07:54:12;;;;;;;4.33;3.10;;;;;;;17.15;41.76;99370.91;6982888;28;20251;-87
2023/05/17 07:57:35;;;;;;;6.67;3.73;;;;;;;17.56;40.92;99398.13;6984937;28;20232;-85
2023/05/17 08:00:57;;;;;;;6.33;3.20;;;;;;;17.71;41.70;99387.59;6984012;28;20209;-86
2023/05/17 08:04:18;;;;;;;7.27;3.63;;;;;;;17.91;41.01;99372.53;6985034;28;20236;-86
2023/05/17 08:07:40;;;;;;;6.17;3.50;;;;;;;17.76;39.02;99314.09;6986273;28;20221;-87
2023/05/17 08:11:02;;;;;;;8.43;3.73;;;;;;;18.12;39.38;99300.13;6984458;28;20209;-86
2023/05/17 08:14:25;;;;;;;6.23;3.60;;;;;;;18.05;39.22;99262.06;6963769;28;20209;-86
2023/05/17 08:17:47;;;;;;;4.10;2.90;;;;;;;19.39;38.64;99387.91;6957812;28;20227;-86
2023/05/17 08:21:09;;;;;;;9.67;3.80;;;;;;;18.80;38.69;99400.16;6955595;28;20266;-88
2023/05/17 08:24:31;;;;;;;6.80;3.70;;;;;;;19.24;38.98;99387.63;6954484;28;20227;-84
2023/05/17 08:27:53;;;;;;;5.97;3.50;;;;;;;19.80;36.56;99376.53;6975452;28;20723;-88
2023/05/17 08:31:15;;;;;;;4.73;3.37;;;;;;;19.71;36.19;99367.09;6982634;28;20210;-87
2023/05/17 08:34:37;;;;;;;7.57;3.87;;;;;;;18.98;37.58;99366.34;6982989;28;20206;-85
2023/05/17 08:37:59;;;;;;;6.00;3.30;;;;;;;18.32;37.83;99375.13;6983909;28;20356;-86
2023/05/17 08:41:20;;;;;;;5.83;3.30;;;;;;;18.13;37.64;99378.22;6982901;28;20234;-87
2023/05/17 08:44:43;;;;;;;5.03;3.60;;;;;;;19.65;37.13;99390.81;6981674;28;20237;-85
2023/05/17 08:48:06;;;;;;;6.47;3.70;;;;;;;18.06;37.77;99329.25;6963293;28;20279;-85
2023/05/17 08:51:28;;;;;;;5.63;3.17;;;;;;;17.89;38.91;99390.22;6960812;28;20210;-86
2023/05/17 08:54:50;;;;;;;6.27;3.87;;;;;;;17.56;39.83;99395.41;6959569;28;20234;-87
2023/05/17 08:58:12;;;;;;;5.60;3.87;;;;;;;18.36;37.46;99340.81;6954619;28;20234;-84
2023/05/17 09:01:34;;;;;;;4.93;3.60;;;;;;;18.51;37.95;99359.41;6955816;28;20369;-84
2023/05/17 09:04:57;;;;;;;5.50;3.30;;;;;;;17.50;38.44;99336.38;6953776;28;20722;-87
2023/05/17 09:08:19;;;;;;;4.47;3.00;;;;;;;16.96;38.27;99307.47;6954858;28;20269;-84
2023/05/17 09:11:41;;;;;;;4.53;3.80;;;;;;;17.23;39.02;99354.22;6954370;28;20273;-85
2023/05/17 09:15:13;;;;;;;6.17;3.73;;;;;;;17.16;39.38;99310.72;6956931;28;20673;-85
2023/05/17 09:18:35;;;;;;;4.70;3.57;;;;;;;18.23;37.87;99392.09;6953672;28;20229;-85
2023/05/17 09:22:01;;;;;;;4.63;3.73;;;;;;;17.35;38.97;99401.41;6952919;28;20211;-85
2023/05/17 09:25:24;;;;;;;5.27;3.40;;;;;;;17.32;39.16;99397.25;6952856;28;20226;-85
2023/05/17 09:28:46;;;;;;;4.67;3.17;;;;;;;17.25;39.71;99412.03;6953057;28;20206;-86
2023/05/17 09:32:14;;;;;;;5.57;3.70;;;;;;;17.73;39.42;99399.09;6952301;28;20224;-85
2023/05/17 09:35:37;;;;;;;7.93;3.53;;;;;;;17.95;38.73;99397.44;6952897;28;20658;-85
2023/05/17 09:39:03;;;;;;;5.93;3.40;;;;;;;18.16;38.58;99410.50;6955871;28;20221;-86
2023/05/17 09:42:26;;;;;;;6.50;4.30;;;;;;;18.27;38.28;99330.50;6952940;28;20206;-86
2023/05/17 09:45:55;;;;;;;4.63;3.20;;;;;;;18.81;36.09;99410.00;6955230;28;20223;-86
2023/05/17 09:49:17;;;;;;;5.50;3.07;;;;;;;19.37;35.49;99404.56;6953519;28;20289;-86
2023/05/17 09:52:39;;;;;;;5.03;2.90;;;;;;;18.95;34.70;99377.75;6953209;28;20215;-86
2023/05/17 09:56:04;;;;;;;5.10;3.33;;;;;;;18.34;35.97;99383.09;6955022;28;20246;-88
2023/05/17 09:59:27;;;;;;;5.63;3.27;;;;;;;18.87;36.59;99391.81;6965004;28;20691;-86
2023/05/17 10:02:50;;;;;;;5.63;3.10;;;;;;;19.35;36.28;99408.59;6951343;28;20227;-85
2023/05/17 10:06:14;;;;;;;7.60;3.73;;;;;;;19.51;35.79;99386.72;6951529;28;20226;-85
2023/05/17 10:09:36;;;;;;;7.07;3.30;;;;;;;18.82;35.40;99394.47;6952113;28;20224;-86
2023/05/17 10:12:59;;;;;;;13.20;7.70;;;;;;;18.95;34.85;99413.28;6950831;28;20210;-88
2023/05/17 10:16:22;;;;;;;8.07;5.10;;;;;;;18.76;36.82;99398.97;6951970;28;20263;-87
2023/05/17 10:19:44;;;;;;;6.23;3.70;;;;;;;18.80;33.89;99364.63;6951136;28;20199;-87
2023/05/17 10:23:07;;;;;;;4.60;3.60;;;;;;;18.77;33.17;99399.81;6951209;28;20226;-87
2023/05/17 10:26:30;;;;;;;4.27;3.37;;;;;;;18.46;34.39;99411.19;6952045;28;20227;-87
2023/05/17 10:29:54;;;;;;;5.07;3.03;;;;;;;18.83;33.92;99415.25;6951051;28;20338;-89
2023/05/17 10:33:17;;;;;;;5.17;3.17;;;;;;;18.21;33.79;99340.47;6951607;28;20215;-88
2023/05/17 10:36:39;;;;;;;7.10;3.67;;;;;;;18.30;34.05;99373.69;6950888;28;20226;-86
2023/05/17 10:40:01;;;;;;;5.23;3.20;;;;;;;18.14;35.70;99360.75;6951589;28;20594;-88
2023/05/17 10:43:24;;;;;;;5.77;3.57;;;;;;;17.66;35.83;99322.03;6951263;28;20231;-88
2023/05/17 10:46:54;;;;;;;4.43;3.27;;;;;;;18.19;35.76;99345.34;6951515;28;20233;-88
2023/05/17 10:50:23;;;;;;;5.60;3.33;;;;;;;17.96;35.74;99306.34;6951345;28;20210;-90
2023/05/17 10:54:09;;;;;;;4.13;3.27;;;;;;;19.09;34.46;99379.09;6951305;28;20202;-88
2023/05/17 10:57:36;;;;;;;4.37;3.27;;;;;;;18.51;34.32;99323.91;6951458;28;20324;-89
2023/05/17 11:04:37;;;;;;;6.30;3.40;;;;;;;18.82;34.31;99356.19;6951547;28;20225;-88
2023/05/17 11:08:21;;;;;;;6.90;3.70;;;;;;;19.19;33.18;99300.00;6979009;28;20241;-88
2023/05/17 11:12:04;;;;;;;6.10;3.67;;;;;;;18.38;35.77;99423.31;6978556;28;20207;-85
2023/05/17 11:15:26;;;;;;;5.70;3.60;;;;;;;18.46;35.76;99425.66;6978235;28;20210;-88
2023/05/17 11:18:49;;;;;;;4.23;3.23;;;;;;;18.62;35.91;99403.06;6978546;28;20206;-88
2023/05/17 11:22:18;;;;;;;4.17;3.27;;;;;;;18.01;35.77;99355.56;6977674;28;20690;-88
2023/05/17 11:25:40;;;;;;;5.90;4.10;;;;;;;18.62;34.40;99369.44;6978196;28;20222;-87
2023/05/17 11:29:06;;;;;;;5.33;3.43;;;;;;;18.46;34.58;99330.09;6970898;28;20215;-88
2023/05/17 11:32:28;;;;;;;6.27;3.57;;;;;;;18.37;35.91;99407.16;6977710;28;20207;-87
2023/05/17 11:35:58;;;;;;;5.43;3.47;;;;;;;17.63;35.92;99347.06;6979969;28;20232;-88
2023/05/17 11:39:22;;;;;;;5.60;3.83;;;;;;;18.41;35.70;99353.75;6983665;28;20212;-88
2023/05/17 11:42:44;;;;;;;6.10;4.27;;;;;;;18.87;34.17;99376.25;6981126;28;20199;-87
2023/05/17 11:46:07;;;;;;;7.67;3.60;;;;;;;18.61;34.92;99318.63;6957183;28;20227;-87
2023/05/17 11:49:28;;;;;;;4.40;3.30;;;;;;;17.90;36.45;99376.34;6956052;28;20624;-87
2023/05/17 11:52:53;;;;;;;4.80;3.20;;;;;;;17.84;37.44;99393.66;6955386;28;20226;-87
2023/05/17 11:56:16;;;;;;;5.70;3.23;;;;;;;17.23;37.14;99313.34;6978454;28;20246;-87
2023/05/17 11:59:39;;;;;;;3.90;3.20;;;;;;;18.29;35.71;99273.75;6982269;28;20345;-86
2023/05/17 12:03:15;;;;;;;7.50;3.60;;;;;;;19.30;34.88;99400.31;6981898;28;20202;-87
2023/05/17 12:06:37;;;;;;;4.27;3.43;;;;;;;18.24;36.05;99385.56;6982636;28;20714;-87
2023/05/17 12:09:58;;;;;;;4.87;3.23;;;;;;;17.67;36.88;99400.88;6982282;28;20752;-87
2023/05/17 12:13:22;;;;;;;4.03;2.97;;;;;;;17.90;36.23;99398.16;6981404;28;20213;-87
2023/05/17 12:16:44;;;;;;;4.33;3.20;;;;;;;16.93;37.71;99389.66;6963971;28;20226;-88
2023/05/17 12:20:07;;;;;;;5.00;3.60;;;;;;;17.68;37.69;99350.72;6965902;28;20206;-87
2023/05/17 12:23:30;;;;;;;3.80;3.10;;;;;;;18.39;35.99;99414.03;6980889;28;20714;-87
2023/05/17 12:26:52;;;;;;;5.33;3.33;;;;;;;18.26;37.29;99395.16;6965756;28;20271;-87
2023/05/17 12:30:16;;;;;;;5.00;3.50;;;;;;;18.37;36.07;99402.53;6978826;28;20213;-86
2023/05/17 12:33:40;;;;;;;6.73;3.23;;;;;;;18.76;34.97;99393.50;6955585;28;20227;-85
2023/05/17 12:37:01;;;;;;;4.40;3.30;;;;;;;18.98;35.02;99389.03;6981506;28;20218;-86
2023/05/17 12:40:23;;;;;;;4.80;2.93;;;;;;;18.82;34.08;99310.56;6979417;28;20198;-87
2023/05/17 12:43:45;;;;;;;5.73;3.93;;;;;;;19.92;34.75;99350.72;6980693;28;20321;-86
2023/05/17 12:47:09;;;;;;;3.83;2.90;;;;;;;19.48;34.48;99357.16;6980167;28;20699;-86
2023/05/17 12:50:31;;;;;;;4.60;3.63;;;;;;;18.34;35.52;99391.28;6983054;28;20576;-86
2023/05/17 12:53:54;;;;;;;5.63;3.50;;;;;;;18.84;35.70;99387.69;6982237;28;20296;-86
2023/05/17 12:57:18;;;;;;;5.57;3.30;;;;;;;17.63;37.25;99319.78;6982740;28;20227;-84
2023/05/17 13:00:40;;;;;;;5.07;3.07;;;;;;;18.47;36.92;99372.72;6984143;28;20210;-84
2023/05/17 13:04:03;;;;;;;10.63;3.93;;;;;;;17.32;38.25;99295.56;6985295;28;20311;-82
2023/05/17 13:07:27;;;;;;;6.27;3.53;;;;;;;17.91;38.45;99393.53;6984877;28;20250;-84
2023/05/17 13:10:49;;;;;;;7.23;3.57;;;;;;;18.14;38.44;99394.34;6984869;28;20272;-83
2023/05/17 13:14:11;;;;;;;6.07;3.77;;;;;;;18.32;37.95;99386.06;6985117;28;20659;-83
2023/05/17 13:17:35;;;;;;;4.43;3.53;;;;;;;18.25;37.96;99376.28;6974339;28;20231;-83
2023/05/17 13:20:58;;;;;;;6.97;4.13;;;;;;;17.90;38.20;99391.88;6956859;28;20257;-83
2023/05/17 13:24:20;;;;;;;3.40;2.90;;;;;;;17.04;37.77;99290.78;6964248;28;20702;-83
2023/05/17 13:27:45;;;;;;;6.93;3.40;;;;;;;17.44;38.91;99359.97;6957037;28;20223;-85
2023/05/17 13:31:09;;;;;;;6.50;3.67;;;;;;;18.19;37.42;99355.41;6958402;28;20215;-83
2023/05/17 13:34:39;;;;;;;4.37;3.27;;;;;;;17.02;39.43;99333.78;6957903;28;20203;-83
2023/05/17 13:38:02;;;;;;;5.73;3.63;;;;;;;17.99;37.87;99398.66;6958942;28;20226;-84
2023/05/17 13:41:24;;;;;;;8.43;3.53;;;;;;;18.43;36.81;99393.38;6968174;28;20678;-83
2023/05/17 13:44:45;;;;;;;7.30;3.57;;;;;;;17.70;37.44;99312.31;6986337;28;20293;-84
2023/05/17 13:48:07;;;;;;;6.07;3.73;;;;;;;17.51;39.06;99384.41;6979565;28;20234;-84
2023/05/17 13:51:29;;;;;;;6.00;3.30;;;;;;;18.18;38.12;99398.28;6960980;28;20203;-83
2023/05/17 13:54:52;;;;;;;6.43;3.40;;;;;;;18.12;37.94;99295.53;6964584;28;20203;-90
2023/05/17 13:58:15;;;;;;;9.23;3.57;;;;;;;18.11;38.07;99359.34;6967103;28;20596;-84
2023/05/17 14:01:37;;;;;;;5.53;3.57;;;;;;;18.17;37.49;99374.75;6952963;28;20214;-84
2023/05/17 14:04:58;;;;;;;6.27;3.60;;;;;;;17.96;37.45;99397.22;6952395;28;20222;-84
2023/05/17 14:08:20;;;;;;;5.50;3.77;;;;;;;17.49;36.85;99338.28;6952211;28;20316;-84
2023/05/17 14:11:43;;;;;;;5.03;3.40;;;;;;;17.51;36.55;99319.78;6952009;28;20750;-85
2023/05/17 14:15:06;;;;;;;4.07;3.10;;;;;;;18.07;35.73;99352.72;6951483;28;20251;-84
2023/05/17 14:18:30;;;;;;;6.33;3.43;;;;;;;18.21;34.78;99408.69;6951722;28;20273;-85
2023/05/17 14:21:57;;;;;;;4.80;3.37;;;;;;;16.32;36.79;99292.88;6952042;28;20679;-84
2023/05/17 14:25:19;;;;;;;6.40;3.67;;;;;;;17.02;36.52;99352.03;6951840;28;20218;-84
2023/05/17 14:28:42;;;;;;;6.73;3.70;;;;;;;17.29;36.69;99407.78;6951616;28;20222;-85
2023/05/17 14:32:04;;;;;;;4.17;3.47;;;;;;;17.55;35.44;99408.22;6950938;28;20295;-85
2023/05/17 14:35:25;;;;;;;6.67;3.47;;;;;;;17.12;37.51;99407.63;6951763;28;20740;-84
2023/05/17 14:38:47;;;;;;;5.50;3.50;;;;;;;17.98;35.48;99386.06;6957167;28;20252;-83
2023/05/17 14:42:09;;;;;;;4.40;3.20;;;;;;;18.20;35.12;99392.56;6978998;28;20303;-84
2023/05/17 14:45:31;;;;;;;5.80;3.40;;;;;;;17.80;35.19;99388.94;6979460;28;20774;-84
2023/05/17 14:48:55;;;;;;;4.03;3.20;;;;;;;17.96;35.84;99405.41;6979072;28;20214;-85
2023/05/17 14:52:16;;;;;;;6.40;3.80;;;;;;;17.75;36.12;99362.34;6979479;28;20212;-84
2023/05/17 14:55:38;;;;;;;4.63;3.30;;;;;;;18.59;35.14;99403.56;6979056;28;20611;-84
2023/05/17 14:59:00;;;;;;;4.90;3.60;;;;;;;18.21;35.11;99315.09;6979122;28;20206;-84
2023/05/17 15:02:23;;;;;;;5.07;3.53;;;;;;;17.62;37.18;99402.66;6979600;28;20868;-84
2023/05/17 15:05:44;;;;;;;5.63;3.40;;;;;;;16.65;39.38;99337.72;6983514;28;20230;-85
2023/05/17 15:09:06;;;;;;;5.80;3.53;;;;;;;17.37;38.03;99408.28;6996742;28;20203;-87
2023/05/17 15:12:28;;;;;;;5.27;3.70;;;;;;;16.73;39.44;99333.81;6978583;28;20199;-85
2023/05/17 15:15:51;;;;;;;5.83;3.93;;;;;;;17.91;37.74;99409.91;6966842;28;20277;-84
2023/05/17 15:19:14;;;;;;;3.87;3.30;;;;;;;17.12;39.21;99390.44;6964399;28;20207;-86
2023/05/17 15:22:36;;;;;;;7.37;3.30;;;;;;;17.52;38.50;99384.16;6964196;28;20261;-83
2023/05/17 15:25:57;;;;;;;5.67;3.80;;;;;;;18.33;36.38;99401.34;6961548;28;20277;-85
2023/05/17 15:29:19;;;;;;;5.50;3.50;;;;;;;16.82;38.53;99384.19;6958032;28;20195;-85
2023/05/17 15:32:41;;;;;;;6.77;3.43;;;;;;;17.38;38.12;99376.41;6962113;28;20604;-86
2023/05/17 15:36:05;;;;;;;4.67;3.30;;;;;;;17.86;36.79;99390.72;6961629;28;20237;-85
2023/05/17 15:39:27;;;;;;;5.90;3.90;;;;;;;17.97;36.70;99414.41;6959583;28;20218;-86
2023/05/17 15:42:50;;;;;;;6.50;3.70;;;;;;;17.94;36.42;99390.34;6955333;28;20203;-86
2023/05/17 15:46:12;;;;;;;5.83;3.30;;;;;;;18.05;36.26;99420.34;6952793;28;20239;-87
2023/05/17 15:49:33;;;;;;;9.10;4.33;;;;;;;17.94;36.49;99421.19;6953571;28;20215;-86
2023/05/17 15:52:56;;;;;;;6.37;3.83;;;;;;;17.87;36.88;99422.38;6952918;28;20203;-85
2023/05/17 15:56:19;;;;;;;9.43;3.60;;;;;;;18.13;36.10;99409.06;6953022;28;20254;-87
2023/05/17 15:59:41;;;;;;;4.43;3.60;;;;;;;17.69;37.20;99392.47;6981120;28;20212;-86